createdAt,value
2023-03-16T11:18:17.661Z,971.59
2023-03-16T11:19:17.587Z,971.58
2023-03-16T11:20:14.300Z,971.57
2023-03-16T11:21:14.312Z,971.57
2023-03-16T11:22:17.624Z,971.60
2023-03-16T11:23:17.594Z,971.60
2023-03-16T11:24:17.601Z,971.59
2023-03-16T11:25:13.963Z,971.56
2023-03-16T11:26:17.627Z,971.61
2023-03-16T11:27:14.006Z,971.54
2023-03-16T11:28:17.609Z,971.54
2023-03-16T11:29:14.111Z,971.54
2023-03-16T11:30:14.118Z,971.54
2023-03-16T11:31:14.192Z,971.57
2023-03-16T11:32:15.326Z,971.59
2023-03-16T11:33:14.180Z,971.57
2023-03-16T11:34:14.205Z,971.53
2023-03-16T11:35:13.956Z,971.57
2023-03-16T11:36:14.015Z,971.52
2023-03-16T11:37:15.643Z,971.52
2023-03-16T11:38:16.683Z,971.52
2023-03-16T11:39:14.614Z,971.60
2023-03-16T11:40:14.615Z,971.53
2023-03-16T11:41:14.603Z,971.50
2023-03-16T11:42:14.612Z,971.53
2023-03-16T11:43:14.614Z,971.51
2023-03-16T11:44:14.164Z,971.51
2023-03-16T11:45:14.143Z,971.53
2023-03-16T11:46:14.648Z,971.53
2023-03-16T11:47:14.626Z,971.55
2023-03-16T11:48:19.200Z,971.50
2023-03-16T11:49:14.642Z,971.52
2023-03-16T11:50:14.286Z,971.53
2023-03-16T11:51:14.290Z,971.46
2023-03-16T11:52:15.152Z,971.44
2023-03-16T11:53:14.321Z,971.44
2023-03-16T11:54:14.410Z,971.42
2023-03-16T11:55:15.156Z,971.45
2023-03-16T11:56:15.215Z,971.41
2023-03-16T11:57:13.872Z,971.40
2023-03-16T11:58:15.160Z,971.39
2023-03-16T11:59:14.200Z,971.37
2023-03-16T12:00:13.980Z,971.34
2023-03-16T12:02:52.029Z,971.34
2023-03-16T12:03:51.996Z,971.35
2023-03-16T12:04:52.006Z,971.34
2023-03-16T12:05:52.098Z,971.33
2023-03-16T12:06:52.130Z,971.31
2023-03-16T12:07:52.159Z,971.31
2023-03-16T12:08:52.209Z,971.32
2023-03-16T12:09:52.261Z,971.25
2023-03-16T12:10:52.353Z,971.27
2023-03-16T12:11:52.368Z,971.25
2023-03-16T12:12:52.403Z,971.23
2023-03-16T12:13:52.501Z,971.21
2023-03-16T12:14:52.508Z,971.18
2023-03-16T12:15:52.610Z,971.19
2023-03-16T12:16:52.730Z,971.19
2023-03-16T12:17:53.444Z,971.18
2023-03-16T12:18:52.716Z,971.16
2023-03-16T12:19:52.770Z,971.17
2023-03-16T12:20:52.820Z,971.12
2023-03-16T12:21:52.898Z,971.14
2023-03-16T12:22:52.938Z,971.14
2023-03-16T12:23:52.970Z,971.10
2023-03-16T12:24:53.009Z,971.08
2023-03-16T12:25:53.074Z,971.09
2023-03-16T12:26:53.155Z,971.05
2023-03-16T12:27:53.231Z,971.07
2023-03-16T12:28:53.219Z,971.03
2023-03-16T12:29:53.279Z,971.05
2023-03-16T12:30:53.319Z,970.99
2023-03-16T12:31:53.461Z,970.98
2023-03-16T12:32:53.600Z,970.99
2023-03-16T12:33:53.483Z,971.05
2023-03-16T12:34:53.544Z,970.99
2023-03-16T12:35:53.671Z,970.95
2023-03-16T12:36:53.640Z,970.97
2023-03-16T12:37:53.688Z,970.96
2023-03-16T12:38:54.461Z,970.94
2023-03-16T12:39:53.794Z,970.95
2023-03-16T12:40:53.902Z,970.94
2023-03-16T12:41:53.897Z,970.92
2023-03-16T12:42:53.956Z,970.95
2023-03-16T12:43:54.169Z,970.95
2023-03-16T12:44:54.074Z,970.97
2023-03-16T12:45:54.145Z,970.98
2023-03-16T12:46:54.206Z,970.99
2023-03-16T12:47:54.227Z,971.00
2023-03-16T12:48:54.274Z,970.99
2023-03-16T12:49:54.352Z,970.98
2023-03-16T12:50:54.378Z,971.00
2023-03-16T12:51:54.422Z,970.96
2023-03-16T12:52:54.495Z,970.96
2023-03-16T12:53:54.536Z,970.93
2023-03-16T12:54:54.662Z,970.93
2023-03-16T12:55:54.642Z,970.95
2023-03-16T12:56:54.708Z,970.86
2023-03-16T12:57:54.769Z,970.89
2023-03-16T12:58:54.807Z,970.86
2023-03-16T12:59:54.887Z,970.85
2023-03-16T13:00:54.997Z,970.89
2023-03-16T13:01:54.970Z,970.91
2023-03-16T13:02:55.017Z,970.92
2023-03-16T13:03:56.000Z,970.87
2023-03-16T13:04:55.180Z,970.90
2023-03-16T13:05:55.223Z,970.93
2023-03-16T13:06:55.256Z,970.91
2023-03-16T13:07:55.295Z,970.90
2023-03-16T13:08:55.973Z,970.89
2023-03-16T13:09:55.409Z,970.89
2023-03-16T13:10:55.968Z,970.83
2023-03-16T13:11:55.547Z,970.84
2023-03-16T13:12:56.467Z,970.79
2023-03-16T13:13:55.627Z,970.74
2023-03-16T13:14:56.469Z,970.76
2023-03-16T13:15:55.731Z,970.79
2023-03-16T13:16:55.931Z,970.77
2023-03-16T13:17:55.840Z,970.76
2023-03-16T13:18:55.884Z,970.76
2023-03-16T13:19:55.951Z,970.75
2023-03-16T13:20:56.028Z,970.69
2023-03-16T13:21:56.051Z,970.68
2023-03-16T13:22:56.096Z,970.68
2023-03-16T13:23:56.183Z,970.66
2023-03-16T13:24:56.205Z,970.66
2023-03-16T13:25:56.344Z,970.65
2023-03-16T13:26:56.324Z,970.63
2023-03-16T13:27:56.375Z,970.67
2023-03-16T13:28:56.449Z,970.66
2023-03-16T13:29:57.031Z,970.65
2023-03-16T13:30:56.551Z,970.65
2023-03-16T13:31:56.665Z,970.68
2023-03-16T13:32:56.666Z,970.65
2023-03-16T13:33:56.720Z,970.65
2023-03-16T13:34:56.780Z,970.68
2023-03-16T13:36:02.183Z,970.68
2023-03-16T13:36:57.592Z,970.69
2023-03-16T13:38:09.017Z,970.66
2023-03-16T13:38:56.962Z,970.67
2023-03-16T13:39:57.042Z,970.66
2023-03-16T13:40:57.071Z,970.66
2023-03-16T13:41:57.136Z,970.69
2023-03-16T13:42:57.193Z,970.67
2023-03-16T13:43:57.227Z,970.66
2023-03-16T13:44:57.359Z,970.57
2023-03-16T13:45:57.412Z,970.57
2023-03-16T13:46:57.415Z,970.56
2023-03-16T13:47:57.448Z,970.50
2023-03-16T13:48:57.513Z,970.54
2023-03-16T13:49:57.584Z,970.57
2023-03-16T13:50:57.664Z,970.58
2023-03-16T13:51:57.664Z,970.52
2023-03-16T13:52:57.741Z,970.51
2023-03-16T13:53:57.793Z,970.55
2023-03-16T13:54:57.868Z,970.51
2023-03-16T13:55:57.897Z,970.56
2023-03-16T13:56:57.965Z,970.54
2023-03-16T13:57:58.007Z,970.58
2023-03-16T13:58:58.091Z,970.57
2023-03-16T13:59:58.139Z,970.64
2023-03-16T14:01:05.099Z,970.59
2023-03-16T14:01:58.229Z,970.65
2023-03-16T14:02:58.313Z,970.62
2023-03-16T14:05:38.387Z,970.50
2023-03-16T14:06:38.387Z,970.54
2023-03-16T14:07:38.420Z,970.54
2023-03-16T14:08:38.471Z,970.55
2023-03-16T14:09:38.573Z,970.56
2023-03-16T14:10:38.471Z,970.57
2023-03-16T14:11:38.479Z,970.60
2023-03-16T14:12:38.517Z,970.56
2023-03-16T14:13:38.615Z,970.55
2023-03-16T14:14:38.153Z,970.55
2023-03-16T14:15:38.190Z,970.53
2023-03-16T14:16:38.159Z,970.55
2023-03-16T14:17:38.217Z,970.55
2023-03-16T14:18:38.285Z,970.56
2023-03-16T14:19:38.326Z,970.55
2023-03-16T14:20:41.601Z,970.58
2023-03-16T14:21:38.440Z,970.56
2023-03-16T14:22:38.555Z,970.51
2023-03-16T14:23:38.556Z,970.55
2023-03-16T14:24:38.623Z,970.52
2023-03-16T14:25:38.677Z,970.52
2023-03-16T14:26:38.747Z,970.44
2023-03-16T14:27:38.897Z,970.47
2023-03-16T14:28:38.857Z,970.43
2023-03-16T14:29:38.908Z,970.42
2023-03-16T14:30:38.978Z,970.36
2023-03-16T14:31:39.038Z,970.40
2023-03-16T14:32:39.152Z,970.38
2023-03-16T14:33:39.141Z,970.42
2023-03-16T14:34:40.086Z,970.40
2023-03-16T14:35:39.302Z,970.40
2023-03-16T14:36:39.317Z,970.44
2023-03-16T14:37:39.413Z,970.42
2023-03-16T14:38:46.086Z,970.41
2023-03-16T14:39:46.106Z,970.39
2023-03-16T14:40:46.082Z,970.40
2023-03-16T14:41:42.685Z,970.39
2023-03-16T14:42:42.709Z,970.37
2023-03-16T14:43:42.740Z,970.40
2023-03-16T14:44:42.330Z,970.39
2023-03-16T14:45:39.860Z,970.38
2023-03-16T14:46:42.465Z,970.40
2023-03-16T14:47:42.377Z,970.40
2023-03-16T14:48:42.395Z,970.39
2023-03-16T14:49:42.744Z,970.40
2023-03-16T14:50:40.179Z,970.39
2023-03-16T14:51:40.220Z,970.40
2023-03-16T14:52:40.296Z,970.40
2023-03-16T14:53:40.343Z,970.41
2023-03-16T14:54:40.384Z,970.41
2023-03-16T14:55:40.479Z,970.42
2023-03-16T14:56:40.509Z,970.47
2023-03-16T14:57:40.639Z,970.48
2023-03-16T14:58:40.630Z,970.51
2023-03-16T14:59:40.699Z,970.49
2023-03-16T15:00:52.274Z,970.51
2023-03-16T15:01:40.857Z,970.46
2023-03-16T15:02:40.929Z,970.41
2023-03-16T15:03:40.974Z,970.41
2023-03-16T15:04:41.035Z,970.50
2023-03-16T15:05:41.826Z,970.50
2023-03-16T15:06:42.737Z,970.48
2023-03-16T15:07:42.768Z,970.42
2023-03-16T15:08:41.256Z,970.35
2023-03-16T15:09:41.280Z,970.36
2023-03-16T15:10:41.382Z,970.31
2023-03-16T15:11:41.398Z,970.27
2023-03-16T15:12:41.451Z,970.26
2023-03-16T15:13:41.532Z,970.19
2023-03-16T15:14:41.595Z,970.21
2023-03-16T15:15:41.677Z,970.18
2023-03-16T15:16:41.682Z,970.17
2023-03-16T15:17:41.723Z,970.12
2023-03-16T15:18:41.830Z,970.13
2023-03-16T15:19:41.857Z,970.08
2023-03-16T15:20:41.891Z,970.07
2023-03-16T15:21:41.956Z,970.04
2023-03-16T15:22:41.994Z,970.00
2023-03-16T15:23:42.044Z,970.03
2023-03-16T15:24:42.093Z,970.04
2023-03-16T15:25:42.176Z,970.04
2023-03-16T15:26:42.224Z,969.95
2023-03-16T15:27:42.238Z,969.91
2023-03-16T15:28:42.297Z,969.87
2023-03-16T15:29:42.338Z,969.90
2023-03-16T15:30:42.395Z,969.82
2023-03-16T15:31:42.528Z,969.88
2023-03-16T15:32:42.538Z,969.92
2023-03-16T15:33:42.589Z,969.90
2023-03-16T15:34:42.610Z,969.90
2023-03-16T15:35:42.708Z,969.90
2023-03-16T15:36:42.703Z,969.87
2023-03-16T15:37:42.750Z,969.87
2023-03-16T15:38:42.824Z,969.86
2023-03-16T15:39:42.890Z,969.86
2023-03-16T15:40:42.922Z,969.84
2023-03-16T15:41:47.694Z,969.85
2023-03-16T15:42:44.548Z,969.86
2023-03-16T15:43:43.045Z,969.91
2023-03-16T15:44:43.093Z,969.88
2023-03-16T15:45:43.180Z,969.91
2023-03-16T15:46:43.259Z,969.86
2023-03-16T15:47:43.250Z,969.88
2023-03-16T15:48:43.298Z,969.87
2023-03-16T15:49:47.923Z,969.87
2023-03-16T15:50:43.416Z,969.92
2023-03-16T15:51:43.444Z,969.90
2023-03-16T15:52:43.481Z,969.93
2023-03-16T15:53:43.562Z,969.90
2023-03-16T15:54:43.579Z,969.90
2023-03-16T15:55:43.679Z,969.90
2023-03-16T15:56:53.631Z,969.90
2023-03-16T15:57:43.734Z,969.89
2023-03-16T15:58:43.816Z,969.94
2023-03-16T15:59:43.839Z,969.90
2023-03-16T16:00:43.914Z,969.87
2023-03-16T16:01:43.962Z,969.86
2023-03-16T16:02:43.997Z,969.85
2023-03-16T16:04:06.400Z,969.79
2023-03-16T16:04:44.075Z,969.86
2023-03-16T16:05:44.126Z,969.84
2023-03-16T16:06:44.189Z,969.84
2023-03-16T16:07:44.221Z,969.83
2023-03-16T16:08:44.260Z,969.84
2023-03-16T16:09:44.339Z,969.84
2023-03-16T16:10:44.378Z,969.77
2023-03-16T16:11:44.427Z,969.79
2023-03-16T16:12:44.528Z,969.78
2023-03-16T16:13:45.323Z,969.77
2023-03-16T16:14:44.573Z,969.75
2023-03-16T16:15:44.648Z,969.78
2023-03-16T16:16:45.194Z,969.77
2023-03-16T16:18:01.031Z,969.77
2023-03-16T16:18:44.797Z,969.78
2023-03-16T16:19:44.809Z,969.80
2023-03-16T16:20:44.899Z,969.79
2023-03-16T16:21:44.940Z,969.76
2023-03-16T16:22:45.002Z,969.77
2023-03-16T16:23:45.031Z,969.76
2023-03-16T16:24:45.058Z,969.76
2023-03-16T16:25:45.669Z,969.76
2023-03-16T16:26:52.894Z,969.79
2023-03-16T16:27:45.206Z,969.82
2023-03-16T16:28:45.239Z,969.80
2023-03-16T16:29:45.311Z,969.78
2023-03-16T16:30:45.344Z,969.79
2023-03-16T16:31:45.465Z,969.76
2023-03-16T16:32:45.459Z,969.76
2023-03-16T16:33:45.497Z,969.75
2023-03-16T16:34:55.019Z,969.77
2023-03-16T16:35:45.631Z,969.76
2023-03-16T16:36:45.672Z,969.75
2023-03-16T16:37:45.729Z,969.74
2023-03-16T16:38:45.735Z,969.77
2023-03-16T16:39:45.781Z,969.77
2023-03-16T16:40:45.845Z,969.78
2023-03-16T16:41:45.875Z,969.80
2023-03-16T16:42:45.970Z,969.79
2023-03-16T16:43:45.975Z,969.81
2023-03-16T16:44:46.028Z,969.84
2023-03-16T16:45:46.086Z,969.81
2023-03-16T16:46:46.124Z,969.80
2023-03-16T16:47:46.202Z,969.79
2023-03-16T16:48:46.230Z,969.84
2023-03-16T16:49:46.263Z,969.82
2023-03-16T16:50:46.327Z,969.83
2023-03-16T16:51:46.401Z,969.85
2023-03-16T16:52:46.442Z,969.87
2023-03-16T16:53:48.123Z,969.84
2023-03-16T17:04:35.372Z,969.93
2023-03-16T17:05:41.486Z,970.00
2023-03-16T17:06:35.411Z,969.96
2023-03-16T17:07:35.422Z,969.96
2023-03-16T17:08:35.482Z,969.98
2023-03-16T17:09:35.519Z,969.99
2023-03-16T17:10:35.598Z,970.03
2023-03-16T17:11:35.651Z,970.04
2023-03-16T17:12:36.380Z,970.06
2023-03-16T17:13:35.712Z,970.00
2023-03-16T17:14:35.794Z,970.01
2023-03-16T17:15:35.809Z,970.02
2023-03-16T17:16:35.894Z,970.03
2023-03-16T17:17:35.926Z,970.02
2023-03-16T17:18:35.959Z,970.00
2023-03-16T17:19:36.002Z,969.98
2023-03-16T17:20:36.050Z,969.97
2023-03-16T17:21:36.094Z,970.02
2023-03-16T17:22:36.189Z,970.01
2023-03-16T17:23:36.184Z,969.98
2023-03-16T17:24:36.246Z,969.98
2023-03-16T17:25:36.279Z,969.97
2023-03-16T17:26:36.365Z,970.00
2023-03-16T17:27:36.429Z,969.97
2023-03-16T17:28:36.429Z,970.00
2023-03-16T17:29:36.481Z,969.93
2023-03-16T17:30:36.602Z,969.95
2023-03-16T17:31:36.619Z,969.97
2023-03-16T17:32:36.643Z,969.97
2023-03-16T17:33:36.649Z,969.98
2023-03-16T17:34:36.702Z,969.94
2023-03-16T17:35:37.348Z,969.96
2023-03-16T17:36:36.851Z,969.97
2023-03-16T17:37:36.853Z,969.96
2023-03-16T17:38:36.899Z,969.97
2023-03-16T17:39:36.960Z,969.99
2023-03-16T17:40:36.987Z,969.98
2023-03-16T17:41:37.076Z,970.02
2023-03-16T17:42:37.111Z,970.02
2023-03-16T17:43:37.137Z,970.04
2023-03-16T17:44:37.221Z,970.06
2023-03-16T17:45:37.233Z,970.04
2023-03-16T17:46:37.328Z,970.03
2023-03-16T17:47:37.326Z,970.00
2023-03-16T17:48:37.368Z,969.98
2023-03-16T17:49:37.453Z,970.01
2023-03-16T17:50:37.459Z,970.06
2023-03-16T17:51:39.821Z,970.07
2023-03-16T17:52:37.580Z,970.02
2023-03-16T17:53:37.612Z,970.01
2023-03-16T17:54:37.693Z,970.01
2023-03-16T17:55:37.733Z,970.00
2023-03-16T17:56:37.747Z,969.98
2023-03-16T17:57:37.832Z,969.97
2023-03-16T17:58:37.840Z,969.97
2023-03-16T17:59:41.761Z,970.01
2023-03-16T18:00:37.959Z,969.99
2023-03-16T18:01:38.019Z,969.96
2023-03-16T18:02:38.051Z,969.94
2023-03-16T18:03:38.126Z,969.91
2023-03-16T18:04:38.153Z,969.92
2023-03-16T18:05:38.178Z,969.90
2023-03-16T18:06:38.221Z,969.91
2023-03-16T18:07:38.253Z,969.89
2023-03-16T18:08:38.314Z,969.88
2023-03-16T18:09:38.408Z,969.90
2023-03-16T18:10:39.125Z,969.85
2023-03-16T18:11:45.336Z,969.85
2023-03-16T18:12:38.500Z,969.81
2023-03-16T18:13:38.529Z,969.86
2023-03-16T18:14:45.348Z,969.82
2023-03-16T18:15:45.361Z,969.84
2023-03-16T18:16:41.937Z,969.87
2023-03-16T18:17:38.718Z,969.90
2023-03-16T18:18:41.846Z,969.92
2023-03-16T18:19:45.346Z,969.88
2023-03-16T18:20:41.902Z,969.88
2023-03-16T18:21:41.922Z,969.86
2023-03-16T18:22:41.957Z,969.89
2023-03-16T18:23:42.020Z,969.83
2023-03-16T18:24:41.807Z,969.83
2023-03-16T18:25:41.793Z,969.83
2023-03-16T18:26:41.808Z,969.87
2023-03-16T18:27:39.208Z,969.86
2023-03-16T18:28:41.844Z,969.84
2023-03-16T18:29:41.846Z,969.87
2023-03-16T18:30:41.878Z,969.88
2023-03-16T18:31:41.983Z,969.87
2023-03-16T18:32:41.992Z,969.89
2023-03-16T18:33:41.942Z,969.89
2023-03-16T18:34:42.347Z,969.90
2023-03-16T18:35:41.912Z,969.89
2023-03-16T18:36:41.904Z,969.91
2023-03-16T18:37:41.927Z,969.93
2023-03-16T18:38:42.008Z,969.92
2023-03-16T18:39:41.977Z,969.91
2023-03-16T18:40:42.000Z,969.93
2023-03-16T18:41:42.060Z,969.94
2023-03-16T18:42:42.058Z,969.89
2023-03-16T18:43:42.077Z,969.93
2023-03-16T18:44:42.098Z,969.89
2023-03-16T18:45:42.129Z,969.93
2023-03-16T18:46:42.225Z,969.93
2023-03-16T18:47:42.242Z,969.91
2023-03-16T18:48:42.198Z,969.91
2023-03-16T18:49:42.231Z,969.91
2023-03-16T18:50:42.234Z,969.90
2023-03-16T18:54:33.348Z,969.91
2023-03-16T18:55:33.372Z,969.91
2023-03-16T18:56:33.423Z,969.92
2023-03-16T19:37:54.147Z,969.73
2023-03-16T20:20:09.572Z,969.32
2023-03-16T20:21:06.133Z,969.32
2023-03-16T20:23:46.689Z,969.30
2023-03-16T20:24:46.720Z,969.30
